createdAt,value
2018-09-03T00:00:50.836Z,101210.11
2018-09-03T00:03:18.853Z,101202.83
2018-09-03T00:05:47.925Z,101205.45
2018-09-03T00:08:15.946Z,101201.77
2018-09-03T00:10:44.137Z,101201.31
2018-09-03T00:13:12.155Z,101202.91
2018-09-03T00:15:40.317Z,101202.35
2018-09-03T00:18:08.338Z,101199.17
2018-09-03T00:20:36.344Z,101195.16
2018-09-03T00:23:04.344Z,101193.27
2018-09-03T00:25:32.352Z,101191.92
2018-09-03T00:28:00.405Z,101185.97
2018-09-03T00:30:28.417Z,101183.72
2018-09-03T00:33:01.809Z,101188.82
2018-09-03T00:35:35.234Z,101185.63
2018-09-03T00:38:08.661Z,101180.91
2018-09-03T00:40:41.974Z,101185.06
2018-09-03T00:43:15.565Z,101178.59
2018-09-03T00:45:49.163Z,101185.98
2018-09-03T00:48:17.193Z,101190.21
2018-09-03T00:50:45.196Z,101187.11
2018-09-03T00:53:13.196Z,101188.66
2018-09-03T00:55:41.293Z,101189.70
2018-09-03T00:58:09.364Z,101189.08
2018-09-03T01:00:37.406Z,101186.66
2018-09-03T01:03:05.609Z,101186.73
2018-09-03T01:05:33.842Z,101180.19
2018-09-03T01:08:01.921Z,101177.42
2018-09-03T01:10:29.914Z,101183.61
2018-09-03T01:12:57.937Z,101179.77
2018-09-03T01:15:29.496Z,101174.17
2018-09-03T01:17:58.169Z,101175.98
2018-09-03T01:20:26.197Z,101173.59
2018-09-03T01:22:54.182Z,101172.52
2018-09-03T01:25:22.306Z,101167.03
2018-09-03T01:27:50.410Z,101168.86
2018-09-03T01:30:18.437Z,101170.42
2018-09-03T01:32:46.445Z,101164.85
2018-09-03T01:35:14.505Z,101170.19
2018-09-03T01:37:42.507Z,101161.00
2018-09-03T01:40:10.717Z,101157.52
2018-09-03T01:42:38.774Z,101161.59
2018-09-03T01:45:06.773Z,101154.47
2018-09-03T01:47:35.065Z,101157.58
2018-09-03T01:50:03.048Z,101152.78
2018-09-03T01:52:31.074Z,101156.45
2018-09-03T01:54:59.113Z,101155.92
2018-09-03T01:57:27.102Z,101152.90
2018-09-03T01:59:55.196Z,101148.06
2018-09-03T02:02:23.352Z,101142.34
2018-09-03T02:04:51.354Z,101139.27
2018-09-03T02:07:19.361Z,101145.28
2018-09-03T02:09:47.386Z,101140.55
2018-09-03T02:12:15.408Z,101140.28
2018-09-03T02:14:44.228Z,101139.71
2018-09-03T02:17:13.420Z,101146.57
2018-09-03T02:19:41.490Z,101144.52
2018-09-03T02:22:09.472Z,101143.16
2018-09-03T02:24:37.756Z,101143.94
2018-09-03T02:27:05.790Z,101143.67
2018-09-03T02:29:33.800Z,101142.16
2018-09-03T02:32:01.941Z,101139.88
2018-09-03T02:34:30.101Z,101131.56
2018-09-03T02:36:58.104Z,101140.26
2018-09-03T02:39:26.096Z,101146.00
2018-09-03T02:41:54.122Z,101144.27
2018-09-03T02:44:22.130Z,101145.73
2018-09-03T02:46:50.142Z,101144.94
2018-09-03T02:49:18.159Z,101136.02
2018-09-03T02:51:46.161Z,101128.60
2018-09-03T02:54:14.204Z,101122.11
2018-09-03T02:56:42.225Z,101120.92
2018-09-03T02:59:10.245Z,101117.23
2018-09-03T03:01:38.253Z,101119.91
2018-09-03T03:04:06.277Z,101114.89
2018-09-03T03:06:34.301Z,101119.43
2018-09-03T03:09:02.380Z,101117.97
2018-09-03T03:11:30.398Z,101112.41
2018-09-03T03:13:58.405Z,101116.62
2018-09-03T03:16:26.423Z,101115.63
2018-09-03T03:18:54.613Z,101107.21
2018-09-03T03:21:22.672Z,101106.66
2018-09-03T03:23:50.724Z,101104.03
2018-09-03T03:26:18.737Z,101106.82
2018-09-03T03:28:46.784Z,101111.20
2018-09-03T03:31:14.793Z,101109.45
2018-09-03T03:33:42.789Z,101111.51
2018-09-03T03:36:10.920Z,101108.55
2018-09-03T03:38:38.905Z,101107.38
2018-09-03T03:41:06.982Z,101104.52
2018-09-03T03:43:34.966Z,101097.48
2018-09-03T03:46:02.969Z,101086.59
2018-09-03T03:48:31.032Z,101079.85
2018-09-03T03:50:59.087Z,101082.81
2018-09-03T03:53:27.081Z,101081.48
2018-09-03T03:55:55.150Z,101076.11
2018-09-03T03:58:23.223Z,101076.53
2018-09-03T04:00:51.298Z,101080.08
2018-09-03T04:03:19.316Z,101078.52
2018-09-03T04:05:47.400Z,101078.22
2018-09-03T04:08:15.437Z,101074.86
2018-09-03T04:10:43.496Z,101075.09
2018-09-03T04:13:11.518Z,101084.55
2018-09-03T04:15:39.540Z,101077.22
2018-09-03T04:18:07.583Z,101079.31
2018-09-03T04:20:35.589Z,101074.34
2018-09-03T04:23:03.671Z,101077.48
2018-09-03T04:25:31.602Z,101082.32
2018-09-03T04:27:59.601Z,101081.72
2018-09-03T04:30:27.585Z,101079.61
2018-09-03T04:32:55.929Z,101078.54
2018-09-03T04:35:23.951Z,101074.20
2018-09-03T04:37:51.966Z,101067.30
2018-09-03T04:40:19.989Z,101062.94
2018-09-03T04:42:48.022Z,101059.54
2018-09-03T04:45:16.181Z,101051.41
2018-09-03T04:47:44.218Z,101056.45
2018-09-03T04:50:12.242Z,101057.41
2018-09-03T04:52:40.249Z,101046.95
2018-09-03T04:55:08.308Z,101047.67
2018-09-03T04:57:36.402Z,101047.97
2018-09-03T05:00:05.200Z,101046.02
2018-09-03T05:02:33.222Z,101049.75
2018-09-03T05:05:01.224Z,101053.09
2018-09-03T05:07:29.281Z,101052.73
2018-09-03T05:09:57.368Z,101049.94
2018-09-03T05:12:25.435Z,101050.02
2018-09-03T05:14:53.420Z,101053.06
2018-09-03T05:17:21.459Z,101055.69
2018-09-03T05:19:49.461Z,101058.02
2018-09-03T05:22:17.565Z,101067.17
2018-09-03T05:24:45.611Z,101068.20
2018-09-03T05:27:13.677Z,101069.28
2018-09-03T05:29:41.757Z,101072.30
2018-09-03T05:32:09.841Z,101077.03
2018-09-03T05:34:37.827Z,101076.01
2018-09-03T05:37:05.897Z,101078.59
2018-09-03T05:39:33.909Z,101079.47
2018-09-03T05:42:02.028Z,101070.95
2018-09-03T05:44:30.062Z,101071.52
2018-09-03T05:46:58.052Z,101070.73
2018-09-03T05:49:26.064Z,101069.37
2018-09-03T05:51:54.123Z,101070.27
2018-09-03T05:54:22.145Z,101067.08
2018-09-03T05:56:50.147Z,101073.95
2018-09-03T05:59:18.296Z,101074.02
2018-09-03T06:01:46.337Z,101077.05
2018-09-03T06:04:14.479Z,101069.84
2018-09-03T06:06:42.488Z,101067.67
2018-09-03T06:09:11.935Z,101070.24
2018-09-03T06:11:40.210Z,101064.17
2018-09-03T06:14:08.356Z,101052.98
2018-09-03T06:16:36.380Z,101057.44
2018-09-03T06:19:04.388Z,101063.41
2018-09-03T06:21:32.450Z,101070.75
2018-09-03T06:24:00.636Z,101064.98
2018-09-03T06:26:28.620Z,101066.47
2018-09-03T06:28:56.647Z,101065.80
2018-09-03T06:31:24.701Z,101070.33
2018-09-03T06:33:52.701Z,101077.59
2018-09-03T06:36:20.711Z,101072.72
2018-09-03T06:38:48.716Z,101073.83
2018-09-03T06:41:16.773Z,101077.53
2018-09-03T06:43:44.769Z,101073.87
2018-09-03T06:46:12.810Z,101084.87
2018-09-03T06:48:40.822Z,101086.31
2018-09-03T06:51:08.828Z,101077.55
2018-09-03T06:53:36.878Z,101077.27
2018-09-03T06:56:04.840Z,101075.50
2018-09-03T06:58:32.857Z,101076.20
2018-09-03T07:01:00.845Z,101079.67
2018-09-03T07:03:28.869Z,101081.73
2018-09-03T07:05:56.873Z,101083.27
2018-09-03T07:08:24.943Z,101080.94
2018-09-03T07:10:52.974Z,101078.31
2018-09-03T07:13:20.955Z,101082.59
2018-09-03T07:15:48.981Z,101076.38
2018-09-03T07:18:16.997Z,101073.97
2018-09-03T07:20:45.012Z,101077.25
2018-09-03T07:23:13.025Z,101080.56
2018-09-03T07:25:41.099Z,101078.19
2018-09-03T07:28:09.117Z,101069.30
2018-09-03T07:30:37.125Z,101075.78
2018-09-03T07:33:05.335Z,101068.54
2018-09-03T07:35:33.400Z,101060.37
2018-09-03T07:38:01.330Z,101062.40
2018-09-03T07:40:29.355Z,101058.96
2018-09-03T07:42:57.398Z,101051.94
2018-09-03T07:45:25.418Z,101061.45
2018-09-03T07:47:53.428Z,101056.30
2018-09-03T07:50:21.473Z,101058.25
2018-09-03T07:52:49.500Z,101060.84
2018-09-03T07:55:17.549Z,101057.22
2018-09-03T07:57:45.582Z,101053.39
2018-09-03T08:00:13.814Z,101045.53
2018-09-03T08:02:41.864Z,101054.08
2018-09-03T08:05:09.896Z,101054.44
2018-09-03T08:07:37.936Z,101047.37
2018-09-03T08:10:06.580Z,101035.28
2018-09-03T08:12:34.585Z,101040.20
2018-09-03T08:15:02.647Z,101040.99
2018-09-03T08:17:30.697Z,101039.23
2018-09-03T08:19:58.776Z,101051.75
2018-09-03T08:22:26.749Z,101035.60
2018-09-03T08:24:54.753Z,101040.42
2018-09-03T08:27:22.744Z,101034.94
2018-09-03T08:29:50.763Z,101031.98
2018-09-03T08:32:18.777Z,101035.09
2018-09-03T08:34:46.840Z,101039.72
2018-09-03T08:37:14.889Z,101021.61
2018-09-03T08:39:42.909Z,101022.49
2018-09-03T08:42:11.137Z,101019.27
2018-09-03T08:44:39.288Z,101021.37
2018-09-03T08:47:07.457Z,101019.92
2018-09-03T08:49:35.472Z,101017.74
2018-09-03T08:52:03.513Z,101013.04
2018-09-03T08:54:31.512Z,101016.03
2018-09-03T08:56:59.562Z,101011.45
2018-09-03T08:59:27.553Z,101013.41
2018-09-03T09:01:55.585Z,101011.85
2018-09-03T09:04:23.588Z,101015.73
2018-09-03T09:06:51.617Z,101015.78
2018-09-03T09:09:19.630Z,101010.83
2018-09-03T09:11:47.654Z,101012.58
2018-09-03T09:14:15.629Z,101004.22
2018-09-03T09:16:43.661Z,101002.28
2018-09-03T09:19:11.652Z,100998.60
2018-09-03T09:21:39.686Z,100997.70
2018-09-03T09:24:07.769Z,100998.81
2018-09-03T09:26:35.811Z,100994.03
2018-09-03T09:29:03.809Z,100992.41
2018-09-03T09:31:31.789Z,100987.88
2018-09-03T09:34:00.212Z,100984.88
2018-09-03T09:36:28.219Z,100988.20
2018-09-03T09:38:56.214Z,100983.80
2018-09-03T09:41:24.217Z,100978.25
2018-09-03T09:43:52.216Z,100975.04
2018-09-03T09:46:20.227Z,100979.22
2018-09-03T09:48:48.248Z,100975.21
2018-09-03T09:51:16.263Z,100984.80
2018-09-03T09:53:44.368Z,100971.66
2018-09-03T09:56:12.396Z,100977.25
2018-09-03T09:58:40.397Z,100974.94
2018-09-03T10:01:13.793Z,100969.52
2018-09-03T10:03:41.788Z,100959.47
2018-09-03T10:06:09.805Z,100968.10
2018-09-03T10:08:37.793Z,100962.64
2018-09-03T10:11:05.936Z,100949.02
2018-09-03T10:13:33.945Z,100949.92
2018-09-03T10:16:01.948Z,100947.09
2018-09-03T10:18:29.939Z,100946.56
2018-09-03T10:20:57.968Z,100950.00
2018-09-03T10:23:25.968Z,100946.63
2018-09-03T10:25:53.976Z,100945.77
2018-09-03T10:28:21.969Z,100944.98
2018-09-03T10:30:49.957Z,100948.11
2018-09-03T10:33:17.961Z,100944.34
2018-09-03T10:35:45.964Z,100934.20
2018-09-03T10:38:13.994Z,100939.98
2018-09-03T10:40:41.961Z,100939.39
2018-09-03T10:43:09.976Z,100931.47
2018-09-03T10:45:42.157Z,100929.58
2018-09-03T10:48:10.165Z,100933.23
2018-09-03T10:50:38.159Z,100932.63
2018-09-03T10:53:06.220Z,100929.77
2018-09-03T10:55:34.208Z,100922.91
2018-09-03T10:58:02.398Z,100913.02
2018-09-03T11:00:30.386Z,100913.41
2018-09-03T11:02:58.414Z,100902.05
2018-09-03T11:05:26.430Z,100903.67
2018-09-03T11:07:54.475Z,100897.93
2018-09-03T11:10:22.476Z,100899.27
2018-09-03T11:12:50.529Z,100902.09
2018-09-03T11:15:18.570Z,100905.73
2018-09-03T11:17:46.611Z,100904.27
2018-09-03T11:20:19.189Z,100907.83
2018-09-03T11:22:47.220Z,100895.38
2018-09-03T11:25:15.292Z,100890.27
2018-09-03T11:27:43.412Z,100888.40
2018-09-03T11:30:11.457Z,100890.46
2018-09-03T11:32:39.735Z,100887.65
2018-09-03T11:35:07.822Z,100887.91
2018-09-03T11:37:35.873Z,100886.73
2018-09-03T11:40:03.928Z,100885.23
2018-09-03T11:42:32.150Z,100875.08
2018-09-03T11:45:00.164Z,100869.62
2018-09-03T11:47:28.533Z,100869.73
2018-09-03T11:49:56.549Z,100882.41
2018-09-03T11:52:24.572Z,100874.54
2018-09-03T11:54:52.577Z,100874.23
2018-09-03T11:57:20.597Z,100874.53
2018-09-03T11:59:48.676Z,100861.06
2018-09-03T12:02:16.704Z,100863.98
2018-09-03T12:04:44.777Z,100856.46
2018-09-03T12:07:12.913Z,100860.34
2018-09-03T12:09:40.966Z,100858.83
2018-09-03T12:12:08.972Z,100863.23
2018-09-03T12:14:39.576Z,100846.98
2018-09-03T12:17:07.752Z,100855.69
2018-09-03T12:19:35.852Z,100853.45
2018-09-03T12:22:03.857Z,100845.84
2018-09-03T12:24:31.981Z,100846.73
2018-09-03T12:27:00.009Z,100849.98
2018-09-03T12:29:28.062Z,100841.32
2018-09-03T12:31:56.124Z,100845.41
2018-09-03T12:34:24.165Z,100847.89
2018-09-03T12:36:52.221Z,100846.73
2018-09-03T12:39:20.269Z,100848.33
2018-09-03T12:41:48.303Z,100842.69
2018-09-03T12:44:16.301Z,100836.77
2018-09-03T12:46:44.326Z,100827.34
2018-09-03T12:49:12.384Z,100833.52
2018-09-03T12:51:40.431Z,100831.38
2018-09-03T12:54:08.621Z,100834.69
2018-09-03T12:56:36.684Z,100826.73
2018-09-03T12:59:04.769Z,100836.48
2018-09-03T13:01:32.932Z,100829.05
2018-09-03T13:04:00.844Z,100828.22
2018-09-03T13:06:28.876Z,100830.31
2018-09-03T13:08:56.895Z,100821.95
2018-09-03T13:11:24.920Z,100822.34
2018-09-03T13:13:52.917Z,100820.20
2018-09-03T13:16:20.940Z,100811.30
2018-09-03T13:18:49.038Z,100806.14
2018-09-03T13:21:17.038Z,100806.61
2018-09-03T13:23:45.377Z,100802.53
2018-09-03T13:26:13.413Z,100794.92
2018-09-03T13:28:41.433Z,100795.05
2018-09-03T13:31:09.441Z,100794.70
2018-09-03T13:33:37.605Z,100807.20
2018-09-03T13:36:05.679Z,100796.34
2018-09-03T13:38:33.709Z,100796.63
2018-09-03T13:41:02.029Z,100789.28
2018-09-03T13:43:30.176Z,100783.81
2018-09-03T13:45:58.314Z,100785.06
2018-09-03T13:48:26.298Z,100782.34
2018-09-03T13:50:54.454Z,100778.32
2018-09-03T13:53:22.437Z,100773.31
2018-09-03T13:55:50.441Z,100774.95
2018-09-03T13:58:18.470Z,100767.33
2018-09-03T14:00:46.498Z,100763.70
2018-09-03T14:03:14.728Z,100767.75
2018-09-03T14:05:42.733Z,100769.36
2018-09-03T14:08:10.729Z,100770.88
2018-09-03T14:10:38.760Z,100765.98
2018-09-03T14:13:06.992Z,100764.09
2018-09-03T14:15:35.066Z,100764.43
2018-09-03T14:18:03.106Z,100767.45
2018-09-03T14:20:32.429Z,100757.98
2018-09-03T14:23:00.409Z,100757.56
2018-09-03T14:25:28.459Z,100760.59
2018-09-03T14:27:56.572Z,100755.32
2018-09-03T14:30:24.563Z,100746.91
2018-09-03T14:32:52.564Z,100749.50
2018-09-03T14:35:20.560Z,100752.48
2018-09-03T14:37:48.557Z,100748.05
2018-09-03T14:40:16.573Z,100748.00
2018-09-03T14:42:44.656Z,100748.84
2018-09-03T14:45:12.680Z,100737.05
2018-09-03T14:47:40.612Z,100742.09
2018-09-03T14:50:08.628Z,100741.95
2018-09-03T14:52:36.768Z,100741.13
2018-09-03T14:55:04.833Z,100740.69
2018-09-03T14:57:32.960Z,100738.84
2018-09-03T15:00:01.014Z,100739.48
2018-09-03T15:02:29.065Z,100740.44
2018-09-03T15:04:57.013Z,100743.08
2018-09-03T15:07:25.004Z,100743.19
2018-09-03T15:09:52.996Z,100739.45
2018-09-03T15:12:21.005Z,100738.31
2018-09-03T15:14:49.039Z,100739.30
2018-09-03T15:17:16.994Z,100736.73
2018-09-03T15:19:45.009Z,100736.28
2018-09-03T15:22:13.012Z,100744.59
2018-09-03T15:24:41.031Z,100737.52
2018-09-03T15:27:09.037Z,100736.73
2018-09-03T15:29:37.021Z,100738.56
2018-09-03T15:32:05.057Z,100744.36
2018-09-03T15:34:33.169Z,100737.71
2018-09-03T15:37:01.180Z,100750.36
2018-09-03T15:39:29.196Z,100737.52
2018-09-03T15:41:57.527Z,100739.59
2018-09-03T15:44:25.526Z,100732.16
2018-09-03T15:46:53.697Z,100730.97
2018-09-03T15:49:21.689Z,100736.23
2018-09-03T15:51:49.695Z,100731.41
2018-09-03T15:54:17.733Z,100735.50
2018-09-03T15:56:45.740Z,100732.52
2018-09-03T15:59:13.798Z,100729.30
2018-09-03T16:01:41.809Z,100736.95
2018-09-03T16:04:09.841Z,100734.51
2018-09-03T16:06:37.832Z,100733.28
2018-09-03T16:09:08.587Z,100734.70
2018-09-03T16:11:36.836Z,100741.64
2018-09-03T16:14:04.881Z,100745.69
2018-09-03T16:16:32.957Z,100734.72
2018-09-03T16:19:00.986Z,100740.87
2018-09-03T16:21:29.037Z,100732.03
2018-09-03T16:23:57.078Z,100738.55
2018-09-03T16:26:25.105Z,100737.81
2018-09-03T16:28:53.205Z,100732.28
2018-09-03T16:31:21.187Z,100736.66
2018-09-03T16:33:49.197Z,100733.31
2018-09-03T16:36:17.214Z,100732.77
2018-09-03T16:38:45.435Z,100730.05
2018-09-03T16:41:13.458Z,100725.55
2018-09-03T16:43:41.617Z,100729.08
2018-09-03T16:46:09.653Z,100730.69
2018-09-03T16:48:37.732Z,100733.50
2018-09-03T16:51:05.990Z,100735.92
2018-09-03T16:53:34.032Z,100737.55
2018-09-03T16:56:02.158Z,100739.73
2018-09-03T16:58:30.209Z,100738.44
2018-09-03T17:00:58.259Z,100735.64
2018-09-03T17:03:26.233Z,100734.38
2018-09-03T17:05:54.240Z,100738.53
2018-09-03T17:08:22.310Z,100736.20
2018-09-03T17:10:50.284Z,100738.14
2018-09-03T17:13:18.331Z,100732.20
2018-09-03T17:15:46.345Z,100738.41
2018-09-03T17:18:14.365Z,100733.45
2018-09-03T17:20:42.389Z,100733.98
2018-09-03T17:23:10.514Z,100732.73
2018-09-03T17:25:38.519Z,100738.60
2018-09-03T17:28:06.625Z,100732.83
2018-09-03T17:30:34.652Z,100735.69
2018-09-03T17:33:02.897Z,100737.34
2018-09-03T17:35:31.035Z,100736.42
2018-09-03T17:37:59.112Z,100732.47
2018-09-03T17:40:27.181Z,100739.34
2018-09-03T17:42:55.173Z,100738.73
2018-09-03T17:45:23.200Z,100736.95
2018-09-03T17:47:51.225Z,100737.77
2018-09-03T17:50:19.245Z,100737.59
2018-09-03T17:52:47.312Z,100743.33
2018-09-03T17:55:15.519Z,100746.77
2018-09-03T17:57:43.549Z,100745.11
2018-09-03T18:00:11.562Z,100746.78
2018-09-03T18:02:39.744Z,100751.94
2018-09-03T18:05:07.797Z,100748.68
2018-09-03T18:07:36.006Z,100745.94
2018-09-03T18:10:04.037Z,100746.59
2018-09-03T18:12:32.187Z,100753.38
2018-09-03T18:15:00.213Z,100753.38
2018-09-03T18:17:28.234Z,100753.19
2018-09-03T18:19:56.421Z,100757.30
2018-09-03T18:22:24.453Z,100758.95
2018-09-03T18:24:52.529Z,100764.11
2018-09-03T18:27:20.545Z,100760.05
2018-09-03T18:29:48.620Z,100758.80
2018-09-03T18:32:16.775Z,100761.40
2018-09-03T18:34:44.800Z,100757.92
2018-09-03T18:37:12.998Z,100761.34
2018-09-03T18:39:40.945Z,100762.67
2018-09-03T18:42:09.159Z,100769.17
2018-09-03T18:44:38.264Z,100766.83
2018-09-03T18:47:06.398Z,100766.55
2018-09-03T18:49:34.424Z,100771.64
2018-09-03T18:52:02.471Z,100770.38
2018-09-03T18:54:30.513Z,100776.55
2018-09-03T18:56:58.528Z,100778.95
2018-09-03T18:59:26.545Z,100778.25
2018-09-03T19:01:54.559Z,100776.80
2018-09-03T19:04:22.692Z,100779.10
2018-09-03T19:06:50.721Z,100780.25
2018-09-03T19:09:18.742Z,100774.71
2018-09-03T19:11:46.801Z,100779.48
2018-09-03T19:14:14.841Z,100786.13
2018-09-03T19:16:42.914Z,100781.88
2018-09-03T19:19:10.974Z,100784.48
2018-09-03T19:21:38.994Z,100779.37
2018-09-03T19:24:07.304Z,100783.26
2018-09-03T19:26:35.297Z,100775.14
2018-09-03T19:29:03.312Z,100781.29
2018-09-03T19:31:31.347Z,100785.38
2018-09-03T19:33:59.464Z,100784.38
2018-09-03T19:36:27.503Z,100781.27
2018-09-03T19:38:56.023Z,100786.67
2018-09-03T19:41:24.046Z,100783.63
2018-09-03T19:43:52.124Z,100789.27
2018-09-03T19:46:20.357Z,100790.21
2018-09-03T19:48:48.665Z,100786.71
2018-09-03T19:51:16.708Z,100779.84
2018-09-03T19:53:44.781Z,100782.92
2018-09-03T19:56:12.914Z,100787.81
2018-09-03T19:58:41.048Z,100786.81
2018-09-03T20:01:09.084Z,100786.11
2018-09-03T20:03:37.262Z,100782.59
2018-09-03T20:06:05.288Z,100782.13
2018-09-03T20:08:33.897Z,100783.19
2018-09-03T20:11:01.954Z,100783.78
2018-09-03T20:13:30.172Z,100782.45
2018-09-03T20:15:58.436Z,100779.37
2018-09-03T20:18:26.436Z,100784.47
2018-09-03T20:20:54.464Z,100787.77
2018-09-03T20:23:22.565Z,100795.94
2018-09-03T20:25:50.537Z,100795.12
2018-09-03T20:28:19.665Z,100797.60
2018-09-03T20:30:47.665Z,100803.36
2018-09-03T20:33:20.131Z,100798.13
2018-09-03T20:35:48.454Z,100800.39
2018-09-03T20:38:16.470Z,100797.08
2018-09-03T20:40:45.706Z,100804.59
2018-09-03T20:43:13.772Z,100802.25
2018-09-03T20:45:41.846Z,100804.62
2018-09-03T20:48:09.857Z,100803.25
2018-09-03T20:50:37.999Z,100803.28
2018-09-03T20:53:06.032Z,100801.10
2018-09-03T20:55:34.044Z,100809.70
2018-09-03T20:58:02.044Z,100801.97
2018-09-03T21:00:30.037Z,100806.71
2018-09-03T21:02:58.240Z,100803.02
2018-09-03T21:05:26.363Z,100805.72
2018-09-03T21:07:54.480Z,100805.36
2018-09-03T21:10:22.524Z,100810.91
2018-09-03T21:12:50.612Z,100811.94
2018-09-03T21:15:18.617Z,100813.47
2018-09-03T21:17:46.653Z,100822.20
2018-09-03T21:20:14.944Z,100817.99
2018-09-03T21:22:42.952Z,100818.16
2018-09-03T21:25:10.969Z,100813.98
2018-09-03T21:27:39.024Z,100813.30
2018-09-03T21:30:07.640Z,100812.80
2018-09-03T21:32:35.652Z,100820.37
2018-09-03T21:35:04.145Z,100824.92
2018-09-03T21:37:32.231Z,100816.83
2018-09-03T21:40:00.267Z,100827.28
2018-09-03T21:42:28.260Z,100831.82
2018-09-03T21:44:56.274Z,100828.12
2018-09-03T21:47:24.385Z,100828.31
2018-09-03T21:49:52.437Z,100824.25
2018-09-03T21:52:20.908Z,100819.55
2018-09-03T21:54:48.928Z,100827.79
2018-09-03T21:57:17.967Z,100825.94
2018-09-03T21:59:45.980Z,100819.37
2018-09-03T22:02:13.982Z,100822.52
2018-09-03T22:04:42.794Z,100822.37
2018-09-03T22:07:11.250Z,100825.53
2018-09-03T22:09:39.380Z,100823.86
2018-09-03T22:12:07.622Z,100828.56
2018-09-03T22:14:35.670Z,100825.55
2018-09-03T22:17:04.766Z,100829.25
2018-09-03T22:19:32.826Z,100832.25
2018-09-03T22:22:00.830Z,100825.53
2018-09-03T22:24:28.833Z,100820.17
2018-09-03T22:26:56.884Z,100821.84
2018-09-03T22:29:24.902Z,100822.69
2018-09-03T22:31:52.877Z,100825.21
2018-09-03T22:34:20.880Z,100825.40
2018-09-03T22:36:49.005Z,100829.74
2018-09-03T22:39:17.033Z,100826.75
2018-09-03T22:41:45.037Z,100831.45
2018-09-03T22:44:13.041Z,100826.53
2018-09-03T22:46:41.068Z,100831.41
2018-09-03T22:49:09.181Z,100829.52
2018-09-03T22:51:37.341Z,100831.86
2018-09-03T22:54:05.526Z,100823.79
2018-09-03T22:56:33.537Z,100817.75
2018-09-03T22:59:01.768Z,100822.20
2018-09-03T23:01:29.758Z,100820.40
2018-09-03T23:03:57.812Z,100824.08
2018-09-03T23:06:25.824Z,100824.72
2018-09-03T23:08:53.870Z,100821.72
2018-09-03T23:11:22.007Z,100827.67
2018-09-03T23:13:49.925Z,100825.94
2018-09-03T23:16:17.976Z,100825.46
2018-09-03T23:18:45.988Z,100827.43
2018-09-03T23:21:14.087Z,100827.07
2018-09-03T23:23:42.095Z,100830.27
2018-09-03T23:26:10.124Z,100820.02
2018-09-03T23:28:38.159Z,100821.19
2018-09-03T23:31:06.292Z,100819.41
2018-09-03T23:33:34.316Z,100815.48
2018-09-03T23:36:02.512Z,100819.98
2018-09-03T23:38:30.508Z,100812.20
2018-09-03T23:40:58.510Z,100811.05
2018-09-03T23:43:26.556Z,100799.61
2018-09-03T23:45:54.597Z,100808.41
2018-09-03T23:48:22.675Z,100798.08
2018-09-03T23:50:50.701Z,100801.14
2018-09-03T23:53:18.721Z,100798.41
2018-09-03T23:55:46.761Z,100803.73
2018-09-03T23:58:14.762Z,100801.05
